Time;durP1;ratioP1;P1;durP2;ratioP2;P2;SDS_P1;SDS_P2;PMS_P1;PMS_P2;Temp;Humidity;BMP_temperature;BMP_pressure;BME280_temperature;BME280_humidity;BME280_pressure;Samples;Min_cycle;Max_cycle;Signal;HPM_P1;HPM_P2
2021/06/29 07:31:17;;;;;;;29.20;18.05;;;15.50;99.90;;;;;;5985437;23;20018;-89
2021/06/29 07:33:48;;;;;;;28.20;18.15;;;15.50;99.90;;;;;;4896116;29;20044;-85
2021/06/29 07:36:16;;;;;;;30.98;17.95;;;15.50;99.90;;;;;;4910451;29;20048;-91
2021/06/29 07:38:44;;;;;;;39.47;20.63;;;15.60;99.90;;;;;;4898399;29;20048;-86
2021/06/29 07:41:12;;;;;;;36.75;19.35;;;15.60;99.90;;;;;;4914909;29;20048;-85
2021/06/29 07:43:39;;;;;;;24.65;17.23;;;15.60;99.90;;;;;;4913231;29;20052;-88
2021/06/29 07:46:06;;;;;;;30.45;17.85;;;15.70;99.90;;;;;;4914072;29;20111;-87
2021/06/29 07:48:33;;;;;;;29.20;17.38;;;15.80;99.90;;;;;;4923909;29;20095;-87
2021/06/29 07:51:02;;;;;;;26.00;16.98;;;15.80;99.90;;;;;;4912334;29;20060;-88
2021/06/29 07:53:30;;;;;;;26.73;16.13;;;15.90;99.90;;;;;;4908392;29;20495;-87
2021/06/29 07:55:57;;;;;;;26.42;16.98;;;16.00;99.90;;;;;;4915065;29;20044;-84
2021/06/29 07:58:24;;;;;;;26.70;15.90;;;16.00;99.90;;;;;;4912801;29;20452;-84
2021/06/29 08:00:53;;;;;;;;;;;16.00;99.90;;;;;;4915046;29;20103;-84
2021/06/29 08:03:20;;;;;;;30.50;16.95;;;16.00;99.90;;;;;;4916126;29;20393;-86
2021/06/29 08:05:51;;;;;;;25.95;16.67;;;16.00;99.90;;;;;;4913235;29;20143;-84
2021/06/29 08:08:18;;;;;;;28.48;16.52;;;16.00;99.90;;;;;;4916765;29;20467;-85
2021/06/29 08:10:46;;;;;;;32.95;16.25;;;16.00;99.90;;;;;;4897633;29;20111;-86
2021/06/29 08:13:13;;;;;;;33.88;17.55;;;16.10;99.90;;;;;;4913661;29;20066;-86
2021/06/29 08:15:40;;;;;;;31.48;17.50;;;16.10;99.90;;;;;;4915797;29;20515;-85
2021/06/29 08:18:08;;;;;;;33.97;18.80;;;16.10;99.90;;;;;;4911667;29;20044;-86
2021/06/29 08:20:36;;;;;;;38.70;21.35;;;16.10;99.90;;;;;;4898551;29;20044;-89
2021/06/29 08:23:06;;;;;;;37.73;22.17;;;16.10;99.90;;;;;;4920660;29;20112;-85
2021/06/29 08:25:34;;;;;;;39.15;21.33;;;16.00;99.90;;;;;;4913068;29;20091;-85
2021/06/29 08:28:02;;;;;;;45.65;22.10;;;16.10;99.90;;;;;;4918389;29;20052;-88
2021/06/29 08:30:29;;;;;;;53.15;23.10;;;16.00;99.90;;;;;;4920815;29;20529;-85
2021/06/29 08:32:56;;;;;;;55.00;24.95;;;16.00;99.90;;;;;;4886011;29;20045;-85
2021/06/29 08:35:23;;;;;;;54.20;25.23;;;16.00;99.90;;;;;;4894090;29;20044;-85
2021/06/29 08:37:50;;;;;;;46.25;24.90;;;16.00;99.90;;;;;;4896186;29;20048;-86
2021/06/29 08:40:18;;;;;;;51.97;25.23;;;15.90;99.90;;;;;;4879791;29;20055;-86
2021/06/29 08:42:45;;;;;;;46.28;25.15;;;16.00;99.90;;;;;;4883856;29;20111;-85
2021/06/29 08:45:13;;;;;;;46.97;25.73;;;16.00;99.90;;;;;;4879527;29;20056;-88
2021/06/29 08:47:41;;;;;;;46.42;27.20;;;16.00;99.90;;;;;;4878100;29;20160;-86
2021/06/29 08:50:11;;;;;;;46.65;26.50;;;16.00;99.90;;;;;;4892645;29;20048;-84
2021/06/29 08:52:38;;;;;;;44.30;27.63;;;16.10;99.90;;;;;;4894291;29;20048;-84
2021/06/29 08:55:06;;;;;;;42.70;26.85;;;16.20;99.90;;;;;;4893618;29;20057;-84
2021/06/29 08:57:33;;;;;;;;;;;16.40;99.90;;;;;;4878017;29;20092;-85
2021/06/29 09:00:00;;;;;;;40.92;25.23;;;16.40;99.90;;;;;;4899312;29;19927;-87
2021/06/29 09:02:28;;;;;;;45.28;26.27;;;16.50;99.90;;;;;;4892659;29;20563;-86
2021/06/29 09:04:59;;;;;;;30.97;23.13;;;16.60;99.90;;;;;;4894032;29;20045;-86
2021/06/29 09:07:28;;;;;;;35.90;23.90;;;16.60;99.90;;;;;;4877299;29;20112;-84
2021/06/29 09:10:01;;;;;;;35.40;24.33;;;16.70;99.90;;;;;;4891907;29;20516;-88
2021/06/29 09:12:51;;;;;;;34.63;26.77;;;16.70;99.90;;;;;;4885432;29;20119;-85
2021/06/29 09:15:36;;;;;;;34.08;25.02;;;16.80;99.90;;;;;;4878549;29;20128;-86
2021/06/29 09:18:05;;;;;;;41.28;26.38;;;16.80;99.90;;;;;;4876454;29;20666;-86
2021/06/29 09:20:43;;;;;;;35.45;24.67;;;16.90;99.90;;;;;;4887148;29;20052;-85
2021/06/29 09:23:15;;;;;;;32.67;23.90;;;17.00;99.90;;;;;;4873286;29;20096;-85
2021/06/29 09:25:59;;;;;;;34.38;23.60;;;17.10;99.90;;;;;;4892408;29;20542;-85
2021/06/29 09:28:32;;;;;;;32.47;22.60;;;17.20;99.90;;;;;;4893249;29;20056;-84
2021/06/29 09:31:09;;;;;;;31.25;22.50;;;17.30;99.90;;;;;;4893656;29;20564;-84
2021/06/29 09:33:41;;;;;;;29.25;21.77;;;17.30;99.90;;;;;;4892240;29;20064;-88
2021/06/29 09:36:16;;;;;;;27.20;22.60;;;17.40;99.90;;;;;;4876732;29;20457;-90
2021/06/29 09:38:45;;;;;;;29.13;22.75;;;17.50;99.90;;;;;;4892326;29;20096;-85
2021/06/29 09:41:35;;;;;;;32.28;22.63;;;17.60;99.90;;;;;;4875345;29;20048;-87
2021/06/29 09:44:11;;;;;;;31.63;22.42;;;17.60;99.90;;;;;;4886137;29;20176;-84
2021/06/29 09:46:40;;;;;;;28.65;21.90;;;17.60;99.90;;;;;;4878862;29;20045;-85
2021/06/29 09:49:09;;;;;;;;;;;17.60;99.90;;;;;;4896155;29;20559;-84
2021/06/29 09:51:50;;;;;;;27.95;23.67;;;17.60;99.90;;;;;;4879216;29;19976;-91
2021/06/29 09:54:18;;;;;;;25.00;21.38;;;17.70;99.90;;;;;;4895210;29;20556;-92
2021/06/29 09:56:47;;;;;;;32.15;22.17;;;17.60;99.90;;;;;;4891604;29;20049;-88
2021/06/29 09:59:26;;;;;;;29.08;21.67;;;17.60;99.90;;;;;;4875796;29;20477;-87
2021/06/29 10:02:06;;;;;;;24.33;19.15;;;17.70;99.90;;;;;;4894637;29;20049;-84
2021/06/29 10:04:34;;;;;;;21.55;18.92;;;17.60;99.90;;;;;;4877987;29;20056;-87
2021/06/29 10:07:17;;;;;;;28.70;21.33;;;17.50;99.90;;;;;;4892668;29;20053;-89
2021/06/29 10:09:45;;;;;;;31.73;21.27;;;17.50;99.90;;;;;;4881043;29;20135;-85
2021/06/29 10:12:23;;;;;;;25.65;20.58;;;17.50;99.90;;;;;;4880629;29;20453;-87
2021/06/29 10:14:50;;;;;;;32.35;22.27;;;17.60;99.90;;;;;;4878758;29;20053;-88
2021/06/29 10:17:17;;;;;;;26.17;20.55;;;17.50;99.90;;;;;;4891859;29;20060;-87
2021/06/29 10:20:10;;;;;;;29.55;20.70;;;17.60;99.90;;;;;;4891242;29;20063;-90
2021/06/29 10:22:34;;;;;;;32.03;21.35;;;17.60;99.90;;;;;;4891339;29;20164;-88
2021/06/29 10:25:02;;;;;;;26.77;20.40;;;17.60;99.90;;;;;;4878679;29;20049;-88
2021/06/29 10:27:29;;;;;;;29.30;20.90;;;17.60;99.90;;;;;;4892235;29;20053;-88
2021/06/29 10:29:58;;;;;;;25.13;20.67;;;17.70;99.90;;;;;;4889126;29;20045;-92
2021/06/29 10:32:29;;;;;;;29.45;20.58;;;17.80;99.90;;;;;;4872479;29;20048;-88
2021/06/29 10:34:56;;;;;;;27.30;18.92;;;18.00;99.90;;;;;;4889755;29;20060;-86
2021/06/29 10:37:24;;;;;;;24.60;18.88;;;18.20;99.90;;;;;;4892124;29;20065;-89
2021/06/29 10:39:51;;;;;;;23.75;18.02;;;18.20;99.90;;;;;;4891792;29;20053;-88
2021/06/29 10:42:19;;;;;;;24.30;16.65;;;18.40;99.90;;;;;;4897361;29;20057;-85
2021/06/29 10:44:52;;;;;;;25.20;18.17;;;18.50;99.90;;;;;;4897601;29;20049;-87
2021/06/29 10:47:30;;;;;;;20.52;17.20;;;18.60;99.90;;;;;;4895058;29;20108;-90
2021/06/29 10:50:02;;;;;;;21.45;17.52;;;18.70;99.90;;;;;;4895601;29;20056;-86
2021/06/29 10:52:33;;;;;;;21.13;16.50;;;18.70;99.90;;;;;;4888848;29;20420;-88
2021/06/29 10:55:22;;;;;;;18.85;16.23;;;18.80;99.90;;;;;;4894996;29;20576;-88
2021/06/29 10:57:59;;;;;;;20.05;17.00;;;18.80;99.90;;;;;;4875976;29;20159;-86
2021/06/29 11:00:28;;;;;;;18.00;14.52;;;18.80;99.90;;;;;;4895727;29;20089;-87
2021/06/29 11:03:06;;;;;;;15.38;13.77;;;18.80;99.90;;;;;;4893474;29;20048;-87
2021/06/29 11:05:39;;;;;;;;;;;18.80;99.90;;;;;;4884425;29;20040;-86
2021/06/29 11:08:10;;;;;;;18.15;14.50;;;18.80;99.90;;;;;;4890502;29;19927;-89
2021/06/29 11:10:40;;;;;;;16.95;14.77;;;18.80;99.90;;;;;;4892179;29;20565;-86
2021/06/29 11:13:09;;;;;;;16.38;14.77;;;18.80;99.90;;;;;;4893442;29;20491;-87
2021/06/29 11:15:53;;;;;;;16.77;14.15;;;18.70;99.90;;;;;;4881217;29;20100;-85
2021/06/29 11:18:40;;;;;;;19.80;17.48;;;18.70;99.90;;;;;;4873557;29;20131;-86
2021/06/29 11:21:10;;;;;;;16.65;14.93;;;18.80;99.90;;;;;;4869798;29;20047;-84
2021/06/29 11:23:39;;;;;;;18.73;15.73;;;18.80;99.90;;;;;;4892435;29;20056;-87
2021/06/29 11:26:12;;;;;;;17.45;14.98;;;18.70;99.90;;;;;;4892135;29;20580;-84
2021/06/29 11:29:05;;;;;;;17.85;14.75;;;18.70;99.90;;;;;;4892486;29;20057;-85
2021/06/29 11:31:33;;;;;;;17.38;15.43;;;18.80;99.90;;;;;;4895695;29;20119;-84
2021/06/29 11:34:11;;;;;;;20.10;16.10;;;18.60;99.90;;;;;;4914158;29;20055;-84
2021/06/29 11:36:40;;;;;;;20.45;16.73;;;18.50;99.90;;;;;;4913373;29;20076;-83
2021/06/29 11:39:13;;;;;;;20.20;16.08;;;18.40;99.90;;;;;;4912954;29;20044;-85
2021/06/29 11:41:42;;;;;;;17.55;15.55;;;18.40;99.90;;;;;;4916162;29;20111;-83
2021/06/29 11:44:09;;;;;;;22.95;16.50;;;18.50;99.90;;;;;;4915280;29;20052;-83
2021/06/29 11:46:51;;;;;;;20.08;17.40;;;18.50;99.90;;;;;;4914074;29;20507;-87
2021/06/29 11:49:29;;;;;;;17.27;14.60;;;18.60;99.90;;;;;;4912745;29;20400;-85
2021/06/29 11:51:56;;;;;;;15.93;14.25;;;18.70;99.90;;;;;;4899616;29;20048;-86
2021/06/29 11:54:32;;;;;;;19.20;15.10;;;18.80;99.90;;;;;;4894147;29;20109;-88
2021/06/29 11:57:12;;;;;;;19.95;15.27;;;18.90;99.90;;;;;;4912365;29;20048;-86
2021/06/29 11:59:40;;;;;;;17.33;12.70;;;19.10;99.90;;;;;;4911138;29;20087;-84
2021/06/29 12:02:09;;;;;;;17.58;14.20;;;19.20;99.90;;;;;;4913734;29;20040;-83
2021/06/29 12:04:51;;;;;;;15.30;13.82;;;19.30;99.90;;;;;;4915095;29;20048;-84
2021/06/29 12:07:32;;;;;;;15.73;12.98;;;19.50;99.90;;;;;;4902915;29;20051;-87
2021/06/29 12:09:59;;;;;;;16.02;12.55;;;19.50;99.90;;;;;;4907867;29;20067;-84
2021/06/29 12:12:28;;;;;;;14.32;12.73;;;19.50;99.90;;;;;;4913579;29;20107;-86
2021/06/29 12:15:06;;;;;;;12.88;10.27;;;19.60;99.90;;;;;;4914717;29;20056;-84
2021/06/29 12:17:35;;;;;;;17.05;13.73;;;19.80;99.90;;;;;;4915615;29;20040;-87
2021/06/29 12:20:09;;;;;;;;;;;19.90;99.90;;;;;;4915412;29;20124;-84
2021/06/29 12:22:39;;;;;;;15.80;11.50;;;19.90;99.90;;;;;;4915047;29;20275;-86
2021/06/29 12:25:36;;;;;;;16.35;13.25;;;19.90;99.90;;;;;;4902496;29;20048;-85
2021/06/29 12:28:14;;;;;;;13.88;11.63;;;20.00;99.90;;;;;;4902394;29;20095;-85
2021/06/29 12:30:42;;;;;;;13.27;11.95;;;19.90;99.90;;;;;;4896763;29;20570;-85
2021/06/29 12:33:12;;;;;;;15.43;12.48;;;19.70;99.90;;;;;;4896128;29;20052;-85
2021/06/29 12:35:40;;;;;;;14.98;12.20;;;19.70;99.90;;;;;;4915320;29;20044;-88
2021/06/29 12:38:14;;;;;;;12.43;11.20;;;19.70;99.90;;;;;;4896745;29;20044;-87
2021/06/29 12:40:44;;;;;;;12.80;11.48;;;19.70;99.90;;;;;;4897855;29;20590;-84
2021/06/29 12:43:38;;;;;;;15.02;11.88;;;19.60;99.90;;;;;;4914101;29;20079;-84
2021/06/29 12:46:23;;;;;;;16.15;12.60;;;19.70;99.90;;;;;;4887773;29;20052;-84
2021/06/29 12:49:20;;;;;;;14.13;12.68;;;19.80;99.90;;;;;;4906612;29;20059;-84
2021/06/29 12:52:03;;;;;;;13.57;11.68;;;19.70;99.90;;;;;;4891305;29;20648;-86
2021/06/29 12:54:31;;;;;;;14.45;12.77;;;19.60;99.90;;;;;;4910510;29;20500;-84
2021/06/29 12:57:01;;;;;;;12.40;10.87;;;19.50;99.90;;;;;;4895840;29;20471;-85
2021/06/29 12:59:31;;;;;;;12.10;10.90;;;19.40;99.90;;;;;;4911086;29;20292;-85
2021/06/29 13:02:04;;;;;;;12.70;9.95;;;19.40;99.90;;;;;;4914060;29;20056;-84
2021/06/29 13:04:42;;;;;;;12.05;10.75;;;19.40;99.90;;;;;;4912214;29;20124;-84
2021/06/29 13:07:11;;;;;;;11.80;9.65;;;19.40;99.90;;;;;;4910966;29;20060;-88
2021/06/29 13:09:43;;;;;;;10.82;9.65;;;19.40;99.90;;;;;;4896306;29;20396;-85
2021/06/29 13:12:20;;;;;;;11.15;9.70;;;19.30;99.90;;;;;;4912111;29;20048;-85
2021/06/29 13:15:06;;;;;;;11.43;10.23;;;19.20;99.90;;;;;;4911581;29;20163;-85
2021/06/29 13:17:50;;;;;;;12.38;10.38;;;19.10;99.90;;;;;;4910011;29;20491;-86
2021/06/29 13:20:26;;;;;;;11.63;10.38;;;19.10;99.90;;;;;;4893043;29;20052;-87
2021/06/29 13:22:58;;;;;;;11.52;10.18;;;19.20;99.90;;;;;;4910731;29;20135;-87
2021/06/29 13:25:34;;;;;;;13.38;10.80;;;19.20;99.90;;;;;;4891405;29;20452;-87
2021/06/29 13:28:21;;;;;;;13.70;10.95;;;19.30;99.90;;;;;;4909960;29;20150;-85
2021/06/29 13:30:59;;;;;;;13.38;11.98;;;19.30;99.90;;;;;;4905753;29;20051;-88
2021/06/29 13:33:36;;;;;;;14.90;13.30;;;19.30;99.90;;;;;;4910366;29;20178;-87
2021/06/29 13:36:04;;;;;;;16.88;13.25;;;19.40;99.90;;;;;;4908966;29;20519;-91
2021/06/29 13:38:31;;;;;;;15.43;11.85;;;19.20;99.90;;;;;;4913826;29;20044;-86
2021/06/29 13:40:59;;;;;;;13.20;11.68;;;19.30;99.90;;;;;;4909526;29;20468;-85
2021/06/29 13:43:29;;;;;;;19.52;12.45;;;19.30;99.90;;;;;;4909127;29;20575;-84
2021/06/29 13:46:10;;;;;;;18.10;13.07;;;19.40;99.90;;;;;;4895819;29;20099;-88
2021/06/29 13:48:47;;;;;;;16.73;13.13;;;19.40;99.90;;;;;;4910185;29;20067;-86
2021/06/29 13:51:25;;;;;;;19.40;13.30;;;19.30;99.90;;;;;;4889866;29;20075;-87
2021/06/29 13:53:52;;;;;;;;;;;19.30;99.90;;;;;;4910830;29;20137;-89
2021/06/29 13:56:37;;;;;;;23.13;14.32;;;19.10;99.90;;;;;;4907884;29;20287;-87
2021/06/29 13:59:05;;;;;;;18.42;13.43;;;19.10;99.90;;;;;;4894649;29;20048;-86
2021/06/29 14:01:39;;;;;;;18.83;14.15;;;19.00;99.90;;;;;;4894809;29;20059;-86
2021/06/29 14:04:06;;;;;;;19.73;15.25;;;19.00;99.90;;;;;;4910774;29;20055;-85
2021/06/29 14:06:35;;;;;;;20.25;15.50;;;18.90;99.90;;;;;;4892478;29;20052;-87
2021/06/29 14:09:12;;;;;;;20.23;15.73;;;18.90;99.90;;;;;;4893738;29;20081;-84
2021/06/29 14:11:41;;;;;;;17.83;13.88;;;18.90;99.90;;;;;;4908546;29;20048;-84
2021/06/29 14:14:12;;;;;;;18.75;14.50;;;18.80;99.90;;;;;;4913221;29;20044;-84
2021/06/29 14:16:39;;;;;;;20.40;13.65;;;18.80;99.90;;;;;;4895880;29;20099;-85
2021/06/29 14:19:07;;;;;;;14.48;12.82;;;18.90;99.90;;;;;;4910760;29;20614;-84
2021/06/29 14:21:36;;;;;;;16.77;13.43;;;19.00;99.90;;;;;;4912106;29;20358;-85
2021/06/29 14:24:05;;;;;;;18.30;14.10;;;19.10;99.90;;;;;;4914600;29;20052;-87
2021/06/29 14:26:33;;;;;;;16.52;13.05;;;19.30;99.90;;;;;;4913361;29;20131;-86
2021/06/29 14:29:00;;;;;;;17.02;13.43;;;19.40;99.90;;;;;;4914673;29;20441;-86
2021/06/29 14:31:27;;;;;;;16.40;13.52;;;19.50;99.90;;;;;;4912436;29;20052;-84
2021/06/29 14:33:55;;;;;;;17.27;13.15;;;19.60;99.90;;;;;;4913862;29;20068;-90
2021/06/29 14:36:22;;;;;;;16.73;12.25;;;19.70;99.90;;;;;;4898122;29;20518;-87
2021/06/29 14:38:50;;;;;;;15.60;13.20;;;19.90;99.90;;;;;;4915240;29;20511;-90
2021/06/29 14:41:19;;;;;;;13.70;11.90;;;19.90;99.90;;;;;;4894741;29;20104;-83
2021/06/29 14:43:46;;;;;;;15.75;12.25;;;20.10;99.90;;;;;;4911448;29;20139;-84
2021/06/29 14:46:13;;;;;;;14.18;11.05;;;20.10;99.90;;;;;;4897752;29;20425;-83
2021/06/29 14:48:40;;;;;;;13.18;11.68;;;20.30;99.90;;;;;;4899718;29;20063;-85
2021/06/29 14:51:07;;;;;;;12.80;10.48;;;20.40;99.90;;;;;;4897604;29;20048;-84
2021/06/29 14:53:34;;;;;;;12.15;10.82;;;20.60;99.90;;;;;;4914851;29;20052;-84
2021/06/29 14:56:02;;;;;;;12.38;9.93;;;20.60;99.90;;;;;;4912647;29;20514;-82
2021/06/29 14:58:29;;;;;;;10.13;9.07;;;20.70;99.90;;;;;;4888005;29;20115;-89
2021/06/29 15:00:56;;;;;;;11.20;8.65;;;20.70;99.90;;;;;;4895276;29;20051;-84
2021/06/29 15:03:25;;;;;;;10.75;9.65;;;20.70;99.90;;;;;;4901833;29;20056;-90
2021/06/29 15:05:52;;;;;;;14.10;9.18;;;20.70;99.90;;;;;;4911726;29;20496;-83
2021/06/29 15:08:19;;;;;;;14.48;11.65;;;20.70;99.90;;;;;;4912816;29;20064;-87
2021/06/29 15:10:46;;;;;;;13.05;9.63;;;20.70;99.90;;;;;;4913969;29;20060;-85
2021/06/29 15:13:13;;;;;;;15.05;10.43;;;20.80;99.90;;;;;;4911846;29;20051;-83
2021/06/29 15:15:40;;;;;;;11.80;10.05;;;20.90;99.90;;;;;;4908840;29;20463;-86
2021/06/29 15:18:08;;;;;;;10.75;8.93;;;21.00;99.90;;;;;;4895462;29;20131;-84
2021/06/29 15:20:38;;;;;;;13.93;9.10;;;20.90;99.90;;;;;;4912383;29;20127;-87
2021/06/29 15:23:06;;;;;;;15.63;10.27;;;20.90;99.90;;;;;;4909053;29;20071;-84
2021/06/29 15:25:33;;;;;;;14.15;11.18;;;20.70;99.90;;;;;;4899928;29;20048;-86
2021/06/29 15:28:00;;;;;;;14.85;9.43;;;20.60;99.90;;;;;;4911738;29;20060;-84
2021/06/29 15:30:28;;;;;;;12.23;9.98;;;20.60;99.90;;;;;;4909834;29;20416;-84
2021/06/29 15:32:56;;;;;;;17.25;9.65;;;20.70;99.90;;;;;;4895705;29;20190;-87
2021/06/29 15:35:23;;;;;;;13.68;11.02;;;20.70;99.90;;;;;;4894889;29;20060;-86
2021/06/29 15:37:50;;;;;;;14.52;11.15;;;20.70;99.90;;;;;;4914020;29;20073;-85
2021/06/29 15:40:21;;;;;;;14.63;11.27;;;20.60;99.90;;;;;;4912628;29;20056;-85
2021/06/29 15:42:48;;;;;;;17.20;11.02;;;20.50;99.90;;;;;;4907981;29;20123;-86
2021/06/29 15:45:16;;;;;;;14.30;11.75;;;20.50;99.90;;;;;;4902183;29;20610;-86
2021/06/29 15:47:44;;;;;;;14.45;10.90;;;20.40;99.90;;;;;;4908284;29;20143;-84
2021/06/29 15:50:12;;;;;;;;;;;20.40;99.90;;;;;;4899146;29;20052;-89
2021/06/29 15:52:40;;;;;;;16.77;11.77;;;20.50;99.90;;;;;;4893350;29;19923;-85
2021/06/29 15:55:09;;;;;;;15.52;11.77;;;20.50;99.90;;;;;;4911526;29;20044;-85
2021/06/29 15:57:36;;;;;;;14.63;10.55;;;20.60;99.90;;;;;;4894769;29;20103;-85
2021/06/29 16:00:06;;;;;;;13.43;11.43;;;20.60;99.90;;;;;;4899964;29;20127;-86
2021/06/29 16:02:33;;;;;;;15.63;12.38;;;20.60;99.90;;;;;;4897872;29;20503;-86
2021/06/29 16:05:00;;;;;;;14.32;10.93;;;20.50;99.90;;;;;;4898964;29;20377;-86
2021/06/29 16:07:27;;;;;;;18.02;10.27;;;20.60;99.90;;;;;;4910627;29;20526;-85
2021/06/29 16:09:53;;;;;;;14.70;10.77;;;20.70;99.90;;;;;;4911885;29;20124;-88
2021/06/29 16:12:20;;;;;;;15.30;11.10;;;20.90;99.90;;;;;;4911120;29;20060;-88
2021/06/29 16:14:47;;;;;;;14.50;10.98;;;20.90;99.90;;;;;;4910002;29;20673;-85
2021/06/29 16:17:14;;;;;;;13.90;11.77;;;21.10;99.90;;;;;;4912581;29;20119;-85
2021/06/29 16:19:41;;;;;;;16.67;11.02;;;21.20;99.90;;;;;;4900040;29;22142;-86
2021/06/29 16:22:08;;;;;;;12.65;11.20;;;21.30;99.90;;;;;;4909131;29;20056;-86
2021/06/29 16:24:35;;;;;;;11.25;9.95;;;21.40;99.90;;;;;;4887828;29;20044;-85
2021/06/29 16:27:02;;;;;;;12.35;10.20;;;21.40;99.90;;;;;;4909500;29;20797;-86
2021/06/29 16:29:29;;;;;;;15.52;12.07;;;21.50;99.90;;;;;;4909548;29;20048;-85
2021/06/29 16:31:56;;;;;;;14.25;11.30;;;21.40;99.90;;;;;;4899111;29;20064;-85
2021/06/29 16:34:23;;;;;;;13.50;11.15;;;21.30;99.90;;;;;;4896208;29;20056;-85
2021/06/29 16:36:50;;;;;;;14.57;11.75;;;21.30;99.90;;;;;;4913406;29;20056;-86
2021/06/29 16:39:17;;;;;;;14.07;10.88;;;21.00;99.90;;;;;;4914607;29;20582;-85
2021/06/29 16:41:44;;;;;;;14.45;11.43;;;20.90;99.90;;;;;;4897629;29;20084;-87
2021/06/29 16:44:14;;;;;;;15.23;12.32;;;20.60;99.90;;;;;;4913388;29;20107;-84
2021/06/29 16:46:41;;;;;;;15.27;11.38;;;20.30;99.90;;;;;;4912572;29;20499;-84
2021/06/29 16:49:08;;;;;;;15.00;10.77;;;20.20;99.90;;;;;;4897826;29;20052;-82
2021/06/29 16:51:36;;;;;;;13.27;9.93;;;20.20;99.90;;;;;;4911015;29;20100;-84
2021/06/29 16:54:03;;;;;;;14.77;11.10;;;20.30;99.90;;;;;;4914515;29;20126;-82
2021/06/29 16:56:30;;;;;;;10.93;9.80;;;20.30;99.90;;;;;;4913562;29;20088;-83
2021/06/29 16:58:56;;;;;;;11.43;9.02;;;20.30;99.90;;;;;;4911270;29;20048;-82
2021/06/29 17:01:25;;;;;;;12.30;9.35;;;20.40;99.90;;;;;;4912844;29;20496;-83
2021/06/29 17:03:53;;;;;;;12.38;9.80;;;20.40;99.90;;;;;;4913361;29;20060;-83
2021/06/29 17:06:34;;;;;;;12.40;9.98;;;20.40;99.90;;;;;;4913994;29;20050;-84
2021/06/29 17:09:07;;;;;;;15.73;12.38;;;20.30;99.90;;;;;;4905087;29;20515;-82
2021/06/29 17:11:34;;;;;;;11.75;10.60;;;20.40;99.90;;;;;;4913446;29;20055;-84
2021/06/29 17:14:04;;;;;;;15.27;10.73;;;20.50;99.90;;;;;;4911917;29;20130;-83
2021/06/29 17:16:37;;;;;;;19.63;12.85;;;20.70;99.90;;;;;;4913420;29;20044;-88
2021/06/29 17:19:05;;;;;;;17.83;12.40;;;20.70;99.90;;;;;;4897304;29;20052;-86
2021/06/29 17:21:35;;;;;;;14.23;11.27;;;20.70;99.90;;;;;;4895878;29;20492;-85
2021/06/29 17:24:02;;;;;;;16.52;12.38;;;20.80;99.90;;;;;;4895143;29;20100;-83
2021/06/29 17:26:29;;;;;;;13.93;11.05;;;20.80;99.90;;;;;;4895870;29;20040;-86
2021/06/29 17:28:56;;;;;;;14.57;11.27;;;20.80;99.90;;;;;;4912265;29;20044;-84
2021/06/29 17:31:23;;;;;;;17.85;11.23;;;20.90;99.90;;;;;;4893363;29;20107;-84
2021/06/29 17:33:50;;;;;;;14.23;10.88;;;20.90;99.90;;;;;;4898623;29;20507;-84
2021/06/29 17:36:18;;;;;;;14.85;10.23;;;21.00;99.90;;;;;;4893196;29;20107;-83
2021/06/29 17:38:44;;;;;;;13.80;10.85;;;21.00;99.90;;;;;;4912190;29;20093;-83
2021/06/29 17:41:12;;;;;;;14.00;10.60;;;21.10;99.90;;;;;;4891247;29;20097;-85
2021/06/29 17:43:39;;;;;;;15.63;11.57;;;21.20;99.90;;;;;;4893868;29;20587;-83
2021/06/29 17:46:06;;;;;;;14.02;11.15;;;21.30;99.90;;;;;;4901017;29;20055;-85
2021/06/29 17:48:33;;;;;;;14.70;12.10;;;21.50;99.90;;;;;;4903219;29;20044;-85
2021/06/29 17:51:00;;;;;;;15.20;11.20;;;21.30;99.90;;;;;;4897708;29;20045;-84
2021/06/29 17:53:27;;;;;;;19.50;14.05;;;21.30;99.90;;;;;;4916502;29;20070;-85
2021/06/29 17:55:54;;;;;;;15.30;12.65;;;21.20;99.90;;;;;;4911277;29;20055;-84
2021/06/29 17:58:22;;;;;;;23.08;13.05;;;21.30;99.90;;;;;;4908294;29;20056;-85
2021/06/29 18:00:49;;;;;;;15.93;12.60;;;21.40;99.90;;;;;;4908869;29;20087;-84
2021/06/29 18:03:16;;;;;;;19.15;13.30;;;21.60;99.90;;;;;;4895270;29;20419;-83
2021/06/29 18:05:43;;;;;;;19.13;13.13;;;22.00;99.90;;;;;;4910753;29;20056;-85
2021/06/29 18:08:14;;;;;;;16.98;13.15;;;22.30;99.90;;;;;;4894214;29;20056;-84
2021/06/29 18:10:42;;;;;;;20.17;14.25;;;22.50;99.90;;;;;;4893274;29;20111;-84
2021/06/29 18:13:09;;;;;;;19.98;13.40;;;22.60;99.90;;;;;;4910803;29;20044;-85
2021/06/29 18:15:36;;;;;;;15.80;12.10;;;22.70;99.90;;;;;;4908786;29;20440;-86
2021/06/29 18:18:03;;;;;;;14.23;11.50;;;22.80;99.90;;;;;;4903771;29;20132;-85
2021/06/29 18:20:30;;;;;;;19.85;12.55;;;23.10;99.90;;;;;;4910546;29;20044;-87
2021/06/29 18:22:57;;;;;;;15.93;11.60;;;23.20;99.90;;;;;;4913008;29;20060;-85
2021/06/29 18:25:24;;;;;;;16.33;11.35;;;23.40;99.90;;;;;;4894793;29;20162;-81
2021/06/29 18:27:51;;;;;;;15.25;10.35;;;23.50;99.90;;;;;;4896929;29;20059;-86
2021/06/29 18:30:19;;;;;;;15.88;11.52;;;23.60;99.90;;;;;;4913408;29;20052;-85
2021/06/29 18:32:46;;;;;;;16.42;12.13;;;23.70;99.90;;;;;;4883181;29;20503;-86
2021/06/29 18:35:17;;;;;;;14.55;11.70;;;24.00;99.90;;;;;;4885690;29;20139;-83
2021/06/29 18:37:44;;;;;;;14.57;11.48;;;24.00;99.90;;;;;;4891821;29;20464;-85
2021/06/29 18:40:13;;;;;;;16.38;11.63;;;24.30;99.90;;;;;;4889480;29;20097;-83
2021/06/29 18:42:45;;;;;;;15.38;12.10;;;24.50;99.90;;;;;;4892852;29;20059;-86
2021/06/29 18:45:17;;;;;;;15.35;11.93;;;24.20;99.90;;;;;;4877804;29;20069;-88
2021/06/29 18:47:44;;;;;;;16.33;11.25;;;24.10;99.90;;;;;;4876545;29;20080;-85
2021/06/29 18:50:13;;;;;;;14.10;11.73;;;24.10;99.90;;;;;;4891351;29;20112;-84
2021/06/29 18:52:43;;;;;;;;;;;24.00;99.90;;;;;;4881446;29;20325;-83
2021/06/29 18:55:22;;;;;;;15.35;12.30;;;23.80;99.90;;;;;;4888613;29;19924;-86
2021/06/29 18:57:49;;;;;;;13.48;12.07;;;23.70;99.90;;;;;;4892460;29;20044;-83
2021/06/29 19:00:19;;;;;;;16.02;12.90;;;23.60;99.90;;;;;;4897045;29;20052;-83
2021/06/29 19:02:47;;;;;;;15.20;12.40;;;23.50;99.90;;;;;;4888752;29;20052;-83
2021/06/29 19:05:15;;;;;;;14.27;12.23;;;23.50;99.90;;;;;;4883381;29;20536;-84
2021/06/29 19:07:43;;;;;;;14.00;11.90;;;23.20;99.90;;;;;;4896687;29;20132;-85
2021/06/29 19:10:11;;;;;;;13.93;11.70;;;23.20;99.90;;;;;;4894615;29;20119;-86
2021/06/29 19:12:43;;;;;;;;;;;23.20;99.90;;;;;;4877745;29;20052;-84
2021/06/29 19:15:15;;;;;;;15.07;11.98;;;23.10;99.90;;;;;;4895210;29;20433;-85
2021/06/29 19:17:43;;;;;;;16.02;11.80;;;22.90;99.90;;;;;;4881159;29;20052;-84
2021/06/29 19:20:14;;;;;;;15.07;11.27;;;22.80;99.90;;;;;;4901097;29;20051;-84
2021/06/29 19:22:42;;;;;;;16.25;11.90;;;22.80;99.90;;;;;;4894052;29;20108;-84
2021/06/29 19:25:10;;;;;;;16.92;13.25;;;22.90;99.90;;;;;;4883198;29;20802;-84
2021/06/29 19:27:40;;;;;;;22.63;12.68;;;22.90;99.90;;;;;;4895711;29;20060;-84
2021/06/29 19:30:11;;;;;;;18.33;13.63;;;22.60;99.90;;;;;;4882004;29;20066;-84
2021/06/29 19:32:39;;;;;;;18.17;13.77;;;22.20;99.90;;;;;;4894857;29;20056;-85
2021/06/29 19:35:07;;;;;;;19.40;15.15;;;21.60;99.90;;;;;;4908400;29;20563;-84
2021/06/29 19:37:34;;;;;;;17.15;13.75;;;21.10;99.90;;;;;;4909899;29;20051;-83
2021/06/29 19:40:02;;;;;;;17.98;14.55;;;20.80;99.90;;;;;;4915566;29;20040;-85
2021/06/29 19:42:29;;;;;;;16.67;14.93;;;20.50;99.90;;;;;;4912612;29;20136;-84
2021/06/29 19:44:56;;;;;;;18.35;15.13;;;20.20;99.90;;;;;;4914218;29;20048;-84
2021/06/29 19:47:23;;;;;;;20.58;14.77;;;19.90;99.90;;;;;;4912540;29;20060;-86
2021/06/29 19:49:51;;;;;;;20.27;14.80;;;19.70;99.90;;;;;;4899658;29;20048;-84
2021/06/29 19:52:18;;;;;;;21.37;14.97;;;19.60;99.90;;;;;;4898641;29;20118;-83
2021/06/29 19:54:45;;;;;;;18.00;14.77;;;19.40;99.90;;;;;;4912161;29;20867;-83
2021/06/29 19:57:13;;;;;;;20.48;15.77;;;19.30;99.90;;;;;;4912204;29;20059;-83
2021/06/29 19:59:40;;;;;;;20.40;15.38;;;19.20;99.90;;;;;;4905352;29;20122;-83
2021/06/29 20:02:08;;;;;;;20.92;14.93;;;19.00;99.90;;;;;;4910288;29;20559;-86
2021/06/29 20:04:35;;;;;;;20.45;15.13;;;18.80;99.90;;;;;;4911893;29;20040;-85
2021/06/29 20:07:02;;;;;;;19.48;13.98;;;18.70;99.90;;;;;;4897227;29;20056;-83
2021/06/29 20:09:29;;;;;;;20.38;14.18;;;18.60;99.90;;;;;;4894269;29;20558;-86
2021/06/29 20:11:55;;;;;;;21.50;14.63;;;18.50;99.90;;;;;;4900655;29;20424;-84
2021/06/29 20:14:23;;;;;;;16.95;14.35;;;18.40;99.90;;;;;;4911134;29;20119;-85
2021/06/29 20:16:52;;;;;;;20.65;16.08;;;18.40;99.90;;;;;;4913095;29;20515;-83